Soledade, Brazil
Current Conditions -  °F | °C
As of 5:00 AM on Monday 20 Oct 2014 (Local Time) from SBKG Reporting Station
Haze Haze  
Wind Chill: 68°   Ceiling: 1200
Heat Index: 68°   Visibility: 3mi
Dew Point: 68°   Wind: 12mph
Humidity: 100%   Direction: 110°ESE
Pressure: 29.97"   Gusts: NA
Location:  7.06°S, 36.36°W
Report Text: SBKG 200800Z 11010KT 5000 BR SCT006 BKN012 20/20 Q1015
Loading
Personal Weather Stations






























Interactive Weather Map
Tropical Storm Tracking
New forecast layout! Learn more

10-Day Weather Forecast

Advertisements
Track Severe Weather on mobile